Time;durP1;ratioP1;P1;durP2;ratioP2;P2;SDS_P1;SDS_P2;PMS_P1;PMS_P2;Temp;Humidity;BMP_temperature;BMP_pressure;BME280_temperature;BME280_humidity;BME280_pressure;Samples;Min_cycle;Max_cycle;Signal;HPM_P1;HPM_P2
2023/03/27 00:03:10;;;;;;;;;;;4.70;99.90;;;;;;8375135;28;20300;-73
2023/03/27 00:07:11;;;;;;;;;;;4.70;99.90;;;;;;8392410;28;19928;-74
2023/03/27 00:11:14;;;;;;;;;;;4.70;99.90;;;;;;8360897;28;20366;-73
2023/03/27 00:15:16;;;;;;;;;;;4.70;99.90;;;;;;8358220;28;19976;-73
2023/03/27 00:19:18;;;;;;;;;;;4.70;99.90;;;;;;8382245;28;19932;-73
2023/03/27 00:23:21;;;;;;;;;;;4.70;99.90;;;;;;8374661;28;20330;-73
2023/03/27 00:27:23;;;;;;;;;;;4.80;99.90;;;;;;8388215;28;20011;-73
2023/03/27 00:31:25;;;;;;;;;;;4.90;99.90;;;;;;8385768;28;19935;-73
2023/03/27 00:35:28;;;;;;;;;;;4.90;99.90;;;;;;8401477;28;19924;-73
2023/03/27 00:39:30;;;;;;;;;;;5.00;99.90;;;;;;8370468;28;19937;-73
2023/03/27 00:43:33;;;;;;;;;;;5.00;99.90;;;;;;8385035;28;20288;-73
2023/03/27 00:47:37;;;;;;;;;;;5.10;99.90;;;;;;8379963;28;19976;-73
2023/03/27 00:51:40;;;;;;;;;;;5.10;99.90;;;;;;8404614;28;19952;-73
2023/03/27 00:55:43;;;;;;;;;;;5.00;99.90;;;;;;8380451;28;20019;-73
2023/03/27 00:59:45;;;;;;;;;;;5.00;99.90;;;;;;8381736;28;19928;-73
2023/03/27 01:03:47;;;;;;;;;;;5.00;99.90;;;;;;8369807;28;20315;-74
2023/03/27 01:07:49;;;;;;;;;;;4.90;99.90;;;;;;8389747;28;19925;-73
2023/03/27 01:12:07;;;;;;;;;;;4.90;99.90;;;;;;8361868;28;19932;-73
2023/03/27 01:16:15;;;;;;;;;;;4.80;99.90;;;;;;8382851;28;19932;-73
2023/03/27 01:20:35;;;;;;;;;;;4.80;99.90;;;;;;8387185;28;19925;-73
2023/03/27 01:24:37;;;;;;;;;;;4.70;99.90;;;;;;8384512;28;19979;-73
2023/03/27 01:28:45;;;;;;;;;;;4.60;99.90;;;;;;8371288;28;19932;-73
2023/03/27 01:32:50;;;;;;;;;;;4.60;99.90;;;;;;8374729;28;19924;-73
2023/03/27 01:37:01;;;;;;;;;;;4.50;99.90;;;;;;8386038;28;20091;-73
2023/03/27 01:41:10;;;;;;;;;;;4.40;99.90;;;;;;8374423;28;19972;-73
2023/03/27 02:00:34;;;;;;;;;;;4.40;99.90;;;;;;8380102;28;19928;-73
2023/03/27 02:05:00;;;;;;;;;;;4.40;99.90;;;;;;8376076;28;20380;-73
2023/03/27 02:09:17;;;;;;;;;;;4.30;99.90;;;;;;8374572;28;19928;-73
2023/03/27 02:13:22;;;;;;;;;;;4.30;99.90;;;;;;8361648;28;19939;-73
2023/03/27 02:17:27;;;;;;;;;;;4.20;99.90;;;;;;8377579;28;19967;-73
2023/03/27 02:21:31;;;;;;;;;;;4.20;99.90;;;;;;8374932;28;19939;-73
2023/03/27 02:25:34;;;;;;;;;;;4.10;99.90;;;;;;8379569;28;19933;-73
2023/03/27 02:29:59;;;;;;;;;;;4.10;99.90;;;;;;8379275;28;19963;-73
2023/03/27 02:34:11;;;;;;;;;;;4.00;99.90;;;;;;8383783;28;19931;-73
2023/03/27 02:38:29;;;;;;;;;;;4.00;99.90;;;;;;8390758;28;19936;-73
2023/03/27 02:42:36;;;;;;;;;;;3.90;99.90;;;;;;8381759;28;19971;-73
2023/03/27 02:46:42;;;;;;;;;;;3.90;99.90;;;;;;8388360;28;19956;-73
2023/03/27 02:51:04;;;;;;;;;;;3.80;99.90;;;;;;8385357;28;19925;-73
2023/03/27 02:55:23;;;;;;;;;;;3.80;99.90;;;;;;8381341;28;19960;-73
2023/03/27 02:59:30;;;;;;;;;;;3.70;99.90;;;;;;8374252;28;19939;-74
2023/03/27 03:03:52;;;;;;;;;;;3.70;99.90;;;;;;8390897;28;20296;-73
2023/03/27 03:07:56;;;;;;;;;;;3.70;99.90;;;;;;8386012;28;19935;-73
2023/03/27 03:11:58;;;;;;;;;;;3.60;99.90;;;;;;8375588;28;19947;-73
2023/03/27 03:16:00;;;;;;;;;;;3.60;99.90;;;;;;8380028;28;19933;-73
2023/03/27 03:20:04;;;;;;;;;;;3.60;99.90;;;;;;8385858;28;20300;-73
2023/03/27 03:24:06;;;;;;;;;;;3.50;99.90;;;;;;8379639;28;20361;-73
2023/03/27 03:28:09;;;;;;;;;;;3.50;99.90;;;;;;8366263;28;19932;-73
2023/03/27 03:32:11;;;;;;;;;;;3.40;99.90;;;;;;8372816;28;19976;-73
2023/03/27 03:36:13;;;;;;;;;;;3.40;99.90;;;;;;8387042;28;20410;-73
2023/03/27 03:40:15;;;;;;;;;;;3.40;99.90;;;;;;8369723;28;19971;-73
2023/03/27 03:44:17;;;;;;;;;;;3.40;99.90;;;;;;8380320;28;20303;-73
2023/03/27 03:48:19;;;;;;;;;;;3.30;99.90;;;;;;8386861;28;19947;-73
2023/03/27 03:52:21;;;;;;;;;;;3.30;99.90;;;;;;8375162;28;19970;-73
2023/03/27 03:56:23;;;;;;;;;;;3.20;99.90;;;;;;8389107;28;19928;-73
2023/03/27 04:00:25;;;;;;;;;;;3.10;99.90;;;;;;8393946;28;19928;-73
2023/03/27 04:04:27;;;;;;;;;;;3.10;99.90;;;;;;8387842;28;19931;-73
2023/03/27 04:08:30;;;;;;;;;;;3.00;99.90;;;;;;8394115;28;20291;-73
2023/03/27 04:12:32;;;;;;;;;;;2.90;99.90;;;;;;8386268;28;20360;-73
2023/03/27 04:16:34;;;;;;;;;;;2.70;99.90;;;;;;8374696;28;19924;-73
2023/03/27 04:20:36;;;;;;;;;;;2.60;99.90;;;;;;8383191;28;20380;-73
2023/03/27 04:24:37;;;;;;;;;;;2.60;99.90;;;;;;8391799;28;19925;-73
2023/03/27 04:28:39;;;;;;;;;;;2.50;99.90;;;;;;8387966;28;19926;-73
2023/03/27 04:32:41;;;;;;;;;;;2.50;99.90;;;;;;8356617;28;19931;-73
2023/03/27 04:36:43;;;;;;;;;;;2.40;99.90;;;;;;8390062;28;20334;-73
2023/03/27 04:40:47;;;;;;;;;;;2.40;99.90;;;;;;8386105;28;19978;-73
2023/03/27 04:44:51;;;;;;;;;;;2.30;99.90;;;;;;8384631;28;20234;-73
2023/03/27 04:48:53;;;;;;;;;;;2.30;99.90;;;;;;8388782;28;19935;-73
2023/03/27 04:52:58;;;;;;;;;;;2.20;99.90;;;;;;8388509;28;20345;-73
2023/03/27 04:57:00;;;;;;;;;;;2.20;99.90;;;;;;8371364;28;19925;-73
2023/03/27 05:01:03;;;;;;;;;;;2.30;99.90;;;;;;8386015;28;20047;-73
2023/03/27 05:05:05;;;;;;;;;;;2.30;99.90;;;;;;8374372;28;19931;-73
2023/03/27 05:09:07;;;;;;;;;;;2.30;99.90;;;;;;8391998;28;20012;-73
2023/03/27 05:13:09;;;;;;;;;;;2.40;99.90;;;;;;8386665;28;20299;-73
2023/03/27 05:17:11;;;;;;;;;;;2.50;99.90;;;;;;8389737;28;19924;-73
2023/03/27 05:21:13;;;;;;;;;;;2.60;99.90;;;;;;8391720;28;19932;-73
2023/03/27 05:25:15;;;;;;;;;;;2.60;99.90;;;;;;8388059;28;19931;-73
2023/03/27 05:29:17;;;;;;;;;;;2.70;99.90;;;;;;8388215;28;19925;-73
2023/03/27 05:33:21;;;;;;;;;;;2.80;99.90;;;;;;8366697;28;20650;-73
2023/03/27 05:37:22;;;;;;;;;;;2.80;99.90;;;;;;8402271;28;20023;-73
2023/03/27 05:41:25;;;;;;;;;;;2.90;99.90;;;;;;8380712;28;19981;-73
2023/03/27 05:45:27;;;;;;;;;;;2.90;99.90;;;;;;8377186;28;19932;-73
2023/03/27 05:49:29;;;;;;;;;;;2.90;99.90;;;;;;8370219;28;19929;-73
2023/03/27 05:53:32;;;;;;;;;;;2.90;99.90;;;;;;8392163;28;19933;-73
2023/03/27 05:57:38;;;;;;;;;;;2.90;99.90;;;;;;8374960;28;20410;-73
2023/03/27 06:01:39;;;;;;;;;;;2.90;99.90;;;;;;8384334;28;19931;-73
2023/03/27 06:05:41;;;;;;;;;;;3.00;99.90;;;;;;8364256;28;19928;-73
2023/03/27 06:09:44;;;;;;;;;;;3.00;99.90;;;;;;8389752;28;20300;-73
2023/03/27 06:13:45;;;;;;;;;;;3.00;99.90;;;;;;8391588;28;19931;-73
2023/03/27 06:17:47;;;;;;;;;;;3.10;99.90;;;;;;8380167;28;19925;-73
2023/03/27 06:21:49;;;;;;;;;;;3.20;99.90;;;;;;8380413;28;20388;-73
2023/03/27 06:25:51;;;;;;;;;;;3.20;99.90;;;;;;8389563;28;20420;-73
2023/03/27 06:29:53;;;;;;;;;;;3.30;99.90;;;;;;8384470;28;19932;-73
2023/03/27 06:33:55;;;;;;;;;;;3.40;99.90;;;;;;8390582;28;20687;-73
2023/03/27 06:38:01;;;;;;;;;;;3.40;99.90;;;;;;8383748;28;20379;-73
2023/03/27 06:42:03;;;;;;;;;;;3.50;99.90;;;;;;8389233;28;19932;-73
2023/03/27 06:46:05;;;;;;;;;;;3.60;99.90;;;;;;8387818;28;20407;-73
2023/03/27 06:50:07;;;;;;;;;;;3.80;99.90;;;;;;8388314;28;19947;-73
2023/03/27 06:54:10;;;;;;;;;;;4.00;99.90;;;;;;8392661;28;19959;-73
2023/03/27 06:58:12;;;;;;;;;;;4.20;99.90;;;;;;8384187;28;19972;-73
2023/03/27 07:02:13;;;;;;;;;;;4.30;99.90;;;;;;8390147;28;19928;-73
2023/03/27 07:06:17;;;;;;;;;;;4.50;99.90;;;;;;8368806;28;19979;-73
2023/03/27 07:10:19;;;;;;;;;;;4.50;99.90;;;;;;8384982;28;19931;-73
2023/03/27 07:14:20;;;;;;;;;;;4.70;99.90;;;;;;8386155;28;19974;-73
2023/03/27 07:18:22;;;;;;;;;;;4.80;99.90;;;;;;8389664;28;19959;-73
2023/03/27 07:22:24;;;;;;;;;;;4.90;99.90;;;;;;8388811;28;19924;-73
2023/03/27 07:26:26;;;;;;;;;;;5.00;99.90;;;;;;8391200;28;19971;-73
2023/03/27 07:30:27;;;;;;;;;;;5.10;99.90;;;;;;8384202;28;19970;-73
2023/03/27 07:34:29;;;;;;;;;;;5.20;99.90;;;;;;8370796;28;19939;-73
2023/03/27 07:38:32;;;;;;;;;;;5.40;99.90;;;;;;8391123;28;19968;-73
2023/03/27 07:42:33;;;;;;;;;;;5.50;99.90;;;;;;8366825;28;19928;-73
2023/03/27 07:46:35;;;;;;;;;;;5.70;99.90;;;;;;8387473;28;19931;-73
2023/03/27 07:50:37;;;;;;;;;;;5.90;99.90;;;;;;8389812;28;19932;-73
2023/03/27 07:54:38;;;;;;;;;;;6.00;99.90;;;;;;8391577;28;20380;-73
2023/03/27 07:58:40;;;;;;;;;;;6.00;99.90;;;;;;8391444;28;19924;-73
2023/03/27 08:02:44;;;;;;;;;;;6.00;99.90;;;;;;8390536;28;19924;-73
2023/03/27 08:06:45;;;;;;;;;;;5.90;99.90;;;;;;8390525;28;19931;-73
2023/03/27 08:10:47;;;;;;;;;;;6.00;99.90;;;;;;8396458;28;19946;-73
2023/03/27 08:14:48;;;;;;;;;;;6.10;99.90;;;;;;8363578;28;19931;-73
2023/03/27 08:18:50;;;;;;;;;;;6.30;99.90;;;;;;8375753;28;19929;-73
2023/03/27 08:22:52;;;;;;;;;;;6.50;99.90;;;;;;8396756;28;19924;-73
2023/03/27 08:26:54;;;;;;;;;;;6.70;99.90;;;;;;8365235;28;19974;-72
2023/03/27 08:30:56;;;;;;;;;;;7.00;99.90;;;;;;8393341;28;19971;-73
2023/03/27 08:35:03;;;;;;;;;;;7.10;99.90;;;;;;8391930;28;20288;-72
2023/03/27 08:39:06;;;;;;;;;;;7.00;99.90;;;;;;8378668;28;20463;-73
2023/03/27 08:43:12;;;;;;;;;;;6.80;99.90;;;;;;8363010;28;19943;-74
2023/03/27 08:47:30;;;;;;;;;;;6.70;99.90;;;;;;8388524;28;19935;-73
2023/03/27 08:51:40;;;;;;;;;;;6.80;99.90;;;;;;8389976;28;19935;-73
2023/03/27 08:55:43;;;;;;;;;;;7.00;99.90;;;;;;8387291;28;20421;-73
2023/03/27 08:59:46;;;;;;;;;;;7.20;99.90;;;;;;8387890;28;19924;-73
2023/03/27 09:04:07;;;;;;;;;;;7.40;99.90;;;;;;8389078;28;20460;-73
2023/03/27 09:08:12;;;;;;;;;;;7.30;99.90;;;;;;8388755;28;19931;-73
2023/03/27 09:12:13;;;;;;;;;;;7.20;99.90;;;;;;8390787;28;20341;-73
2023/03/27 09:16:24;;;;;;;;;;;7.10;99.90;;;;;;8387466;28;20388;-73
2023/03/27 09:20:36;;;;;;;;;;;7.00;99.90;;;;;;8389908;28;19928;-73
2023/03/27 09:24:40;;;;;;;;;;;7.10;99.90;;;;;;8387415;28;20031;-73
2023/03/27 09:28:50;;;;;;;;;;;7.50;99.90;;;;;;8378188;28;19924;-73
2023/03/27 09:32:53;;;;;;;;;;;7.70;99.90;;;;;;8378237;28;19924;-73
2023/03/27 09:36:57;;;;;;;;;;;8.00;99.90;;;;;;8375626;28;20386;-73
2023/03/27 09:41:05;;;;;;;;;;;8.20;99.90;;;;;;8372046;28;20313;-73
2023/03/27 09:45:08;;;;;;;;;;;8.20;99.90;;;;;;8390679;28;19932;-73
2023/03/27 09:49:12;;;;;;;;;;;7.70;99.90;;;;;;8363426;28;20367;-73
2023/03/27 09:53:16;;;;;;;;;;;7.10;99.90;;;;;;8387069;28;19935;-73
2023/03/27 09:57:17;;;;;;;;;;;6.70;99.90;;;;;;8387309;28;20367;-73
2023/03/27 10:01:33;;;;;;;;;;;6.30;99.90;;;;;;8377468;28;19928;-73
2023/03/27 10:05:34;;;;;;;;;;;6.10;99.90;;;;;;8390671;28;19932;-73
2023/03/27 10:09:37;;;;;;;;;;;6.10;99.90;;;;;;8402232;28;19963;-73
2023/03/27 10:13:42;;;;;;;;;;;6.00;99.90;;;;;;8381169;28;20357;-73
2023/03/27 10:17:47;;;;;;;;;;;6.20;99.90;;;;;;8385814;28;19924;-73
2023/03/27 10:21:49;;;;;;;;;;;6.90;99.90;;;;;;8374286;28;19940;-73
2023/03/27 10:25:51;;;;;;;;;;;7.70;99.90;;;;;;8378688;28;19933;-73
2023/03/27 10:29:53;;;;;;;;;;;8.30;99.90;;;;;;8378564;28;19933;-74
2023/03/27 10:33:56;;;;;;;;;;;9.00;99.90;;;;;;8381936;28;20283;-74
2023/03/27 10:37:59;;;;;;;;;;;9.60;99.90;;;;;;8381996;28;19935;-74
2023/03/27 10:42:01;;;;;;;;;;;10.10;99.90;;;;;;8375581;28;19933;-73
2023/03/27 10:46:05;;;;;;;;;;;10.30;99.90;;;;;;8389014;28;19932;-74
2023/03/27 10:50:25;;;;;;;;;;;10.60;99.90;;;;;;8389609;28;19975;-73
2023/03/27 10:54:37;;;;;;;;;;;10.70;99.90;;;;;;8395311;28;19931;-73
2023/03/27 10:58:42;;;;;;;;;;;10.90;99.90;;;;;;8398199;28;19932;-73
2023/03/27 11:02:47;;;;;;;;;;;10.80;99.90;;;;;;8394742;28;19932;-73
2023/03/27 11:06:51;;;;;;;;;;;10.50;99.90;;;;;;8398273;28;19932;-74
2023/03/27 11:10:56;;;;;;;;;;;9.90;99.90;;;;;;8392005;28;19939;-73
2023/03/27 11:15:01;;;;;;;;;;;9.70;99.90;;;;;;8395599;28;19924;-73
2023/03/27 11:19:06;;;;;;;;;;;10.30;99.90;;;;;;8394029;28;19924;-72
2023/03/27 11:23:29;;;;;;;;;;;10.80;99.90;;;;;;8382016;28;19933;-73
2023/03/27 11:27:48;;;;;;;;;;;10.80;99.90;;;;;;8392906;28;20042;-73
2023/03/27 11:31:51;;;;;;;;;;;10.40;99.90;;;;;;8388130;28;19936;-73
2023/03/27 11:36:00;;;;;;;;;;;9.70;99.90;;;;;;8390063;28;20376;-73
2023/03/27 11:40:03;;;;;;;;;;;9.70;99.90;;;;;;8372958;28;19925;-73
2023/03/27 11:44:07;;;;;;;;;;;10.60;99.90;;;;;;8373711;28;20955;-73
2023/03/27 11:48:20;;;;;;;;;;;11.10;99.90;;;;;;8374159;28;19925;-74
2023/03/27 11:52:32;;;;;;;;;;;11.30;99.90;;;;;;8372630;28;20016;-74
2023/03/27 11:56:37;;;;;;;;;;;11.90;99.90;;;;;;8373676;28;19968;-74
2023/03/27 12:00:43;;;;;;;;;;;12.50;99.90;;;;;;8389205;28;19928;-74
2023/03/27 12:04:51;;;;;;;;;;;13.10;99.90;;;;;;8388480;28;19932;-74
2023/03/27 12:09:12;;;;;;;;;;;13.90;99.90;;;;;;8379138;28;19939;-74
2023/03/27 12:13:20;;;;;;;;;;;14.60;99.90;;;;;;8358054;28;19924;-74
2023/03/27 12:17:54;;;;;;;;;;;15.10;99.90;;;;;;8372741;28;19936;-74
2023/03/27 12:21:57;;;;;;;;;;;15.30;99.90;;;;;;8375321;28;19939;-74
2023/03/27 12:26:08;;;;;;;;;;;15.90;99.90;;;;;;8374885;28;19929;-74
2023/03/27 12:30:28;;;;;;;;;;;15.60;99.90;;;;;;8366056;28;19960;-74
2023/03/27 12:34:37;;;;;;;;;;;14.80;99.90;;;;;;8371430;28;19931;-73
2023/03/27 12:38:40;;;;;;;;;;;13.50;99.90;;;;;;8372966;28;19929;-74
2023/03/27 12:42:48;;;;;;;;;;;11.80;99.90;;;;;;8358545;28;19935;-74
2023/03/27 12:47:05;;;;;;;;;;;10.10;99.90;;;;;;8389398;28;19995;-73
2023/03/27 12:51:11;;;;;;;;;;;8.90;99.90;;;;;;8364778;28;19932;-73
2023/03/27 12:55:13;;;;;;;;;;;8.70;99.90;;;;;;8370853;28;19939;-73
2023/03/27 12:59:21;;;;;;;;;;;8.90;99.90;;;;;;8377375;28;19943;-73
2023/03/27 13:03:34;;;;;;;;;;;9.20;99.90;;;;;;8367908;28;20316;-75
2023/03/27 13:07:36;;;;;;;;;;;9.40;99.90;;;;;;8366307;28;20442;-74
2023/03/27 13:11:57;;;;;;;;;;;9.80;99.90;;;;;;8353925;28;19932;-74
2023/03/27 13:16:14;;;;;;;;;;;10.10;99.90;;;;;;8362596;28;20035;-73
2023/03/27 13:20:21;;;;;;;;;;;10.30;99.90;;;;;;8358539;28;19929;-73
2023/03/27 13:24:35;;;;;;;;;;;10.70;99.90;;;;;;8370150;28;19928;-74
2023/03/27 13:28:38;;;;;;;;;;;11.00;99.90;;;;;;8376425;28;19925;-73
2023/03/27 13:32:40;;;;;;;;;;;11.20;99.90;;;;;;8360136;28;19928;-73
2023/03/27 13:36:46;;;;;;;;;;;11.10;99.90;;;;;;8360033;28;20027;-73
2023/03/27 13:40:48;;;;;;;;;;;10.50;99.90;;;;;;8355475;28;19933;-74
2023/03/27 13:45:16;;;;;;;;;;;9.80;99.90;;;;;;8362272;28;19956;-73
2023/03/27 13:49:31;;;;;;;;;;;9.70;99.90;;;;;;8363250;28;20334;-74
2023/03/27 13:53:36;;;;;;;;;;;10.00;99.90;;;;;;8367208;28;20011;-74
2023/03/27 13:57:38;;;;;;;;;;;10.40;99.90;;;;;;8381280;28;19925;-74
2023/03/27 14:01:42;;;;;;;;;;;10.50;99.90;;;;;;8363290;28;20231;-74
2023/03/27 14:06:02;;;;;;;;;;;10.70;99.90;;;;;;8354978;28;19924;-74
2023/03/27 14:10:11;;;;;;;;;;;11.10;99.90;;;;;;8366730;28;20337;-74
2023/03/27 14:14:21;;;;;;;;;;;11.50;99.90;;;;;;8360679;28;19928;-74
2023/03/27 14:18:37;;;;;;;;;;;12.20;99.90;;;;;;8355111;28;19935;-75
2023/03/27 14:22:41;;;;;;;;;;;12.20;99.90;;;;;;8366523;28;20036;-74
2023/03/27 14:26:44;;;;;;;;;;;11.60;99.90;;;;;;8360635;28;19929;-73
2023/03/27 14:30:47;;;;;;;;;;;10.60;99.90;;;;;;8364375;28;20011;-74
2023/03/27 14:34:52;;;;;;;;;;;9.90;99.90;;;;;;8366232;28;20377;-74
2023/03/27 14:39:01;;;;;;;;;;;9.30;99.90;;;;;;8365604;28;19940;-73
2023/03/27 14:43:05;;;;;;;;;;;9.00;99.90;;;;;;8367103;28;19978;-73
2023/03/27 14:47:10;;;;;;;;;;;9.00;99.90;;;;;;8367840;28;19937;-73
2023/03/27 14:51:18;;;;;;;;;;;9.80;99.90;;;;;;8359792;28;19928;-74
2023/03/27 14:55:21;;;;;;;;;;;11.20;99.90;;;;;;8366085;28;20463;-74
2023/03/27 14:59:24;;;;;;;;;;;13.00;99.90;;;;;;8366574;28;19929;-74
2023/03/27 15:03:32;;;;;;;;;;;14.00;99.90;;;;;;8376807;28;19928;-74
2023/03/27 15:07:34;;;;;;;;;;;14.30;99.90;;;;;;8341099;28;20295;-74
2023/03/27 15:11:37;;;;;;;;;;;14.70;99.90;;;;;;8367601;28;19939;-75
2023/03/27 15:15:41;;;;;;;;;;;14.90;99.90;;;;;;8364494;28;19939;-74
2023/03/27 15:19:52;;;;;;;;;;;14.80;99.90;;;;;;8367739;28;19937;-74
2023/03/27 15:23:59;;;;;;;;;;;14.80;99.90;;;;;;8385070;28;19959;-74
2023/03/27 15:28:05;;;;;;;;;;;15.10;99.90;;;;;;8380367;28;20402;-74
2023/03/27 15:32:10;;;;;;;;;;;15.30;99.90;;;;;;8380826;28;20006;-74
2023/03/27 15:36:25;;;;;;;;;;;15.30;99.90;;;;;;8373052;28;20011;-74
2023/03/27 15:40:38;;;;;;;;;;;14.70;99.90;;;;;;8372570;28;19935;-74
2023/03/27 15:44:42;;;;;;;;;;;13.40;99.90;;;;;;8369502;28;19925;-74
2023/03/27 15:48:46;;;;;;;;;;;13.00;99.90;;;;;;8362805;28;19929;-74
2023/03/27 15:52:51;;;;;;;;;;;13.50;99.90;;;;;;8362865;28;19928;-74
2023/03/27 15:56:53;;;;;;;;;;;13.40;99.90;;;;;;8363365;28;20350;-74
2023/03/27 16:01:15;;;;;;;;;;;12.80;99.90;;;;;;8361198;28;19939;-74
2023/03/27 16:05:19;;;;;;;;;;;12.90;99.90;;;;;;8375922;28;21169;-74
2023/03/27 16:09:22;;;;;;;;;;;13.50;99.90;;;;;;8360798;28;19975;-74
2023/03/27 16:13:26;;;;;;;;;;;13.80;99.90;;;;;;8359497;28;20373;-74
2023/03/27 16:17:30;;;;;;;;;;;13.70;99.90;;;;;;8363478;28;19925;-74
2023/03/27 16:21:32;;;;;;;;;;;13.80;99.90;;;;;;8360706;28;19980;-74
2023/03/27 16:25:34;;;;;;;;;;;13.60;99.90;;;;;;8369647;28;20019;-74
2023/03/27 16:29:36;;;;;;;;;;;13.00;99.90;;;;;;8369637;28;19924;-74
2023/03/27 16:33:41;;;;;;;;;;;12.20;99.90;;;;;;8364246;28;20031;-74
2023/03/27 16:37:43;;;;;;;;;;;11.50;99.90;;;;;;8359735;28;19929;-74
2023/03/27 16:41:45;;;;;;;;;;;11.10;99.90;;;;;;8366125;28;19929;-73
2023/03/27 16:45:47;;;;;;;;;;;10.80;99.90;;;;;;8360726;28;20012;-73
2023/03/27 16:49:49;;;;;;;;;;;10.70;99.90;;;;;;8365394;28;20228;-73
2023/03/27 16:54:08;;;;;;;;;;;11.30;99.90;;;;;;8364165;28;20015;-74
2023/03/27 16:58:09;;;;;;;;;;;12.50;99.90;;;;;;8372315;28;19929;-74
2023/03/27 17:02:11;;;;;;;;;;;13.30;99.90;;;;;;8346582;28;19928;-74
2023/03/27 17:06:14;;;;;;;;;;;14.00;99.90;;;;;;8349141;28;19931;-74
2023/03/27 17:10:15;;;;;;;;;;;14.20;99.90;;;;;;8370197;28;19979;-74
2023/03/27 17:14:17;;;;;;;;;;;14.20;99.20;;;;;;8367080;28;19940;-74
2023/03/27 17:18:18;;;;;;;;;;;13.30;99.30;;;;;;8367162;28;19925;-74
2023/03/27 17:22:20;;;;;;;;;;;12.50;99.90;;;;;;8365027;28;20217;-74
2023/03/27 17:26:23;;;;;;;;;;;12.00;99.30;;;;;;8369321;28;20047;-74
2023/03/27 17:30:25;;;;;;;;;;;11.20;99.90;;;;;;8373913;28;19931;-74
2023/03/27 17:34:39;;;;;;;;;;;10.60;99.90;;;;;;8364099;28;19932;-74
2023/03/27 17:38:42;;;;;;;;;;;10.00;99.90;;;;;;8369410;28;19931;-74
2023/03/27 17:42:43;;;;;;;;;;;9.60;99.90;;;;;;8370136;28;20019;-73
2023/03/27 17:46:45;;;;;;;;;;;9.40;99.90;;;;;;8380621;28;20357;-74
2023/03/27 17:50:46;;;;;;;;;;;9.20;99.90;;;;;;8348268;28;20397;-73
2023/03/27 17:54:58;;;;;;;;;;;9.10;99.90;;;;;;8371964;28;19928;-74
2023/03/27 17:59:01;;;;;;;;;;;8.80;99.90;;;;;;8362951;28;20368;-74
2023/03/27 18:03:03;;;;;;;;;;;8.70;99.90;;;;;;8358915;28;19940;-73
2023/03/27 18:07:04;;;;;;;;;;;8.50;99.90;;;;;;8365547;28;19977;-74
2023/03/27 18:11:08;;;;;;;;;;;8.30;99.90;;;;;;8365151;28;19933;-74
2023/03/27 18:15:09;;;;;;;;;;;8.10;99.90;;;;;;8364535;28;19929;-74
2023/03/27 18:19:12;;;;;;;;;;;8.00;99.90;;;;;;8359560;28;19932;-73
2023/03/27 18:23:13;;;;;;;;;;;7.90;99.90;;;;;;8345415;28;19924;-74
2023/03/27 18:27:15;;;;;;;;;;;7.80;99.90;;;;;;8359407;28;19962;-73
2023/03/27 18:31:17;;;;;;;;;;;7.80;99.90;;;;;;8364004;28;19928;-73
2023/03/27 18:35:19;;;;;;;;;;;7.70;99.90;;;;;;8361022;28;20444;-74
2023/03/27 18:44:20;;;;;;;;;;;7.60;99.90;;;;;;8361074;28;20317;-74
2023/03/27 18:48:22;;;;;;;;;;;7.50;99.90;;;;;;8358477;28;19925;-74
2023/03/27 18:52:24;;;;;;;;;;;7.50;99.90;;;;;;8357448;28;20633;-73
2023/03/27 18:56:26;;;;;;;;;;;7.40;99.90;;;;;;8353616;28;19940;-74
2023/03/27 19:00:27;;;;;;;;;;;7.30;99.90;;;;;;8362184;28;19979;-73
2023/03/27 19:04:29;;;;;;;;;;;7.20;99.90;;;;;;8356827;28;19929;-73
2023/03/27 19:08:31;;;;;;;;;;;7.20;99.90;;;;;;8361341;28;20322;-74
2023/03/27 19:12:33;;;;;;;;;;;7.20;99.90;;;;;;8364704;28;19935;-74
2023/03/27 19:16:36;;;;;;;;;;;7.10;99.90;;;;;;8368234;28;19964;-74
2023/03/27 19:20:38;;;;;;;;;;;7.00;99.90;;;;;;8367499;28;19931;-73
2023/03/27 19:24:40;;;;;;;;;;;7.00;99.90;;;;;;8365853;28;20340;-74
2023/03/27 19:28:42;;;;;;;;;;;6.90;99.90;;;;;;8370314;28;19975;-74
2023/03/27 19:32:44;;;;;;;;;;;6.80;99.90;;;;;;8368780;28;20092;-74
2023/03/27 19:36:46;;;;;;;;;;;6.70;99.90;;;;;;8369870;28;19964;-74
2023/03/27 19:40:47;;;;;;;;;;;6.60;99.90;;;;;;8350726;28;19968;-74
2023/03/27 19:44:49;;;;;;;;;;;6.60;99.90;;;;;;8366644;28;19925;-74
2023/03/27 19:48:51;;;;;;;;;;;6.50;99.90;;;;;;8365667;28;19929;-74
2023/03/27 19:52:52;;;;;;;;;;;6.50;99.90;;;;;;8366692;28;20299;-74
2023/03/27 19:57:06;;;;;;;;;;;6.40;99.90;;;;;;8353489;28;19936;-73
2023/03/27 20:01:07;;;;;;;;;;;6.30;99.90;;;;;;8365056;28;19973;-74
2023/03/27 20:05:09;;;;;;;;;;;6.20;99.90;;;;;;8380245;28;19936;-74
2023/03/27 20:09:11;;;;;;;;;;;6.00;99.90;;;;;;8369095;28;19952;-73
2023/03/27 20:13:14;;;;;;;;;;;5.90;99.90;;;;;;8370478;28;19931;-74
2023/03/27 20:17:18;;;;;;;;;;;5.70;99.90;;;;;;8364396;28;19925;-74
2023/03/27 20:21:29;;;;;;;;;;;5.50;99.90;;;;;;8364235;28;19936;-74
2023/03/27 20:25:33;;;;;;;;;;;5.40;99.90;;;;;;8351350;28;19960;-74
2023/03/27 20:29:34;;;;;;;;;;;5.40;99.90;;;;;;8351236;28;19925;-73
2023/03/27 20:33:36;;;;;;;;;;;5.40;99.90;;;;;;8332377;28;19925;-73
2023/03/27 20:37:39;;;;;;;;;;;5.20;99.90;;;;;;8330348;28;20384;-74
2023/03/27 20:41:40;;;;;;;;;;;5.10;99.90;;;;;;8363219;28;19929;-73
2023/03/27 20:45:42;;;;;;;;;;;4.90;99.90;;;;;;8330326;28;19969;-74
2023/03/27 20:49:44;;;;;;;;;;;4.80;99.90;;;;;;8357853;28;19931;-74
2023/03/27 20:53:52;;;;;;;;;;;4.60;99.90;;;;;;8330272;28;19958;-74
2023/03/27 20:57:54;;;;;;;;;;;4.60;99.90;;;;;;8331034;28;20016;-73
2023/03/27 21:01:56;;;;;;;;;;;4.50;99.90;;;;;;8337151;28;20459;-74
2023/03/27 21:11:02;;;;;;;;;;;4.40;99.90;;;;;;8339980;28;19966;-74
2023/03/27 21:15:05;;;;;;;;;;;4.30;99.90;;;;;;8344892;28;19925;-73
2023/03/27 21:19:07;;;;;;;;;;;4.20;99.90;;;;;;8342872;28;20458;-74
2023/03/27 21:23:08;;;;;;;;;;;4.20;99.90;;;;;;8345391;28;19931;-73
2023/03/27 21:27:11;;;;;;;;;;;4.10;99.90;;;;;;8371029;28;19964;-73
2023/03/27 21:31:13;;;;;;;;;;;4.00;99.90;;;;;;8353563;28;19925;-74
2023/03/27 21:35:15;;;;;;;;;;;4.00;99.90;;;;;;8381854;28;19968;-74
2023/03/27 21:39:16;;;;;;;;;;;4.00;99.90;;;;;;8375924;28;20363;-74
2023/03/27 21:43:20;;;;;;;;;;;4.00;99.90;;;;;;8377163;28;19928;-73
2023/03/27 21:47:21;;;;;;;;;;;3.90;99.90;;;;;;8384810;28;20356;-73
2023/03/27 21:51:23;;;;;;;;;;;3.80;99.90;;;;;;8376991;28;19931;-74
2023/03/27 21:55:24;;;;;;;;;;;3.60;99.90;;;;;;8364531;28;19975;-74
2023/03/27 21:59:27;;;;;;;;;;;3.60;99.90;;;;;;8375900;28;19924;-74
2023/03/27 22:03:29;;;;;;;;;;;3.50;99.90;;;;;;8381252;28;19929;-73
2023/03/27 22:07:30;;;;;;;;;;;3.60;99.90;;;;;;8388991;28;20277;-73
2023/03/27 22:11:32;;;;;;;;;;;3.50;99.90;;;;;;8376796;28;19976;-74
2023/03/27 22:15:34;;;;;;;;;;;3.40;99.90;;;;;;8377477;28;19990;-73
2023/03/27 22:19:35;;;;;;;;;;;3.30;99.90;;;;;;8397546;28;19932;-73
2023/03/27 22:23:38;;;;;;;;;;;3.30;99.90;;;;;;8378019;28;19947;-74
2023/03/27 22:27:40;;;;;;;;;;;3.20;99.90;;;;;;8384387;28;19967;-73
2023/03/27 22:31:41;;;;;;;;;;;3.20;99.90;;;;;;8384608;28;19976;-73
2023/03/27 22:35:47;;;;;;;;;;;3.20;99.90;;;;;;8400553;28;19928;-74
2023/03/27 22:39:49;;;;;;;;;;;3.10;99.90;;;;;;8373856;28;19933;-74
2023/03/27 22:43:51;;;;;;;;;;;3.10;99.90;;;;;;8381203;28;19924;-74
2023/03/27 22:47:53;;;;;;;;;;;3.10;99.90;;;;;;8370071;28;19932;-74
2023/03/27 22:51:54;;;;;;;;;;;3.00;99.90;;;;;;8395325;28;20272;-73
2023/03/27 22:55:56;;;;;;;;;;;3.00;99.90;;;;;;8380223;28;19975;-74
2023/03/27 22:59:58;;;;;;;;;;;2.90;99.90;;;;;;8385723;28;20299;-73
2023/03/27 23:04:00;;;;;;;;;;;2.90;99.90;;;;;;8390549;28;19931;-73
2023/03/27 23:08:02;;;;;;;;;;;2.80;99.90;;;;;;8388983;28;19932;-73
2023/03/27 23:12:03;;;;;;;;;;;2.80;99.90;;;;;;8381753;28;19924;-73
2023/03/27 23:16:05;;;;;;;;;;;2.80;99.90;;;;;;8401727;28;20022;-73
2023/03/27 23:20:07;;;;;;;;;;;2.70;99.90;;;;;;8384729;28;19928;-73
2023/03/27 23:24:09;;;;;;;;;;;2.70;99.90;;;;;;8385291;28;20015;-74
2023/03/27 23:28:10;;;;;;;;;;;2.70;99.90;;;;;;8383189;28;19960;-74
2023/03/27 23:32:12;;;;;;;;;;;2.60;99.90;;;;;;8382957;28;19924;-73
2023/03/27 23:36:15;;;;;;;;;;;2.70;99.90;;;;;;8392133;28;19947;-74
2023/03/27 23:40:17;;;;;;;;;;;2.60;99.90;;;;;;8392691;28;19947;-74
2023/03/27 23:44:19;;;;;;;;;;;2.50;99.90;;;;;;8404087;28;19928;-74
2023/03/27 23:48:21;;;;;;;;;;;2.40;99.90;;;;;;8383654;28;19947;-73
